sensor_id;sensor_type;location;lat;lon;timestamp;temperature;humidity
38090;DHT22;23904;52.322;10.232;2023-12-07T00:00:18;2.50;99.90
38090;DHT22;23904;52.322;10.232;2023-12-07T00:02:44;2.50;99.90
38090;DHT22;23904;52.322;10.232;2023-12-07T00:05:09;2.50;99.90
38090;DHT22;23904;52.322;10.232;2023-12-07T00:07:35;2.50;99.90
38090;DHT22;23904;52.322;10.232;2023-12-07T00:10:00;2.50;99.90
38090;DHT22;23904;52.322;10.232;2023-12-07T00:12:26;2.50;99.90
38090;DHT22;23904;52.322;10.232;2023-12-07T00:14:51;2.50;99.90
38090;DHT22;23904;52.322;10.232;2023-12-07T00:17:17;2.50;99.90
38090;DHT22;23904;52.322;10.232;2023-12-07T00:19:42;2.50;99.90
38090;DHT22;23904;52.322;10.232;2023-12-07T00:22:08;2.50;99.90
38090;DHT22;23904;52.322;10.232;2023-12-07T00:24:33;2.60;99.90
38090;DHT22;23904;52.322;10.232;2023-12-07T00:26:59;2.50;99.90
38090;DHT22;23904;52.322;10.232;2023-12-07T00:29:24;2.50;99.90
38090;DHT22;23904;52.322;10.232;2023-12-07T00:31:50;2.50;99.90
38090;DHT22;23904;52.322;10.232;2023-12-07T00:34:17;2.50;99.90
38090;DHT22;23904;52.322;10.232;2023-12-07T00:36:42;2.50;99.90
38090;DHT22;23904;52.322;10.232;2023-12-07T00:39:08;2.50;99.90
38090;DHT22;23904;52.322;10.232;2023-12-07T00:41:34;2.50;99.90
38090;DHT22;23904;52.322;10.232;2023-12-07T00:43:59;2.50;99.90
38090;DHT22;23904;52.322;10.232;2023-12-07T00:46:25;2.60;99.90
38090;DHT22;23904;52.322;10.232;2023-12-07T00:48:50;2.50;99.90
38090;DHT22;23904;52.322;10.232;2023-12-07T00:51:16;2.60;99.90
38090;DHT22;23904;52.322;10.232;2023-12-07T00:53:42;2.60;99.90
38090;DHT22;23904;52.322;10.232;2023-12-07T00:56:07;2.60;99.90
38090;DHT22;23904;52.322;10.232;2023-12-07T00:58:33;2.60;99.90
38090;DHT22;23904;52.322;10.232;2023-12-07T01:01:00;2.50;99.90
38090;DHT22;23904;52.322;10.232;2023-12-07T01:03:25;2.50;99.90
38090;DHT22;23904;52.322;10.232;2023-12-07T01:05:51;2.50;99.90
38090;DHT22;23904;52.322;10.232;2023-12-07T01:08:16;2.50;99.90
38090;DHT22;23904;52.322;10.232;2023-12-07T01:10:42;2.50;99.90
38090;DHT22;23904;52.322;10.232;2023-12-07T01:13:07;2.50;99.90
38090;DHT22;23904;52.322;10.232;2023-12-07T01:15:33;2.60;99.90
38090;DHT22;23904;52.322;10.232;2023-12-07T01:17:58;2.60;99.90
38090;DHT22;23904;52.322;10.232;2023-12-07T01:20:24;2.60;99.90
38090;DHT22;23904;52.322;10.232;2023-12-07T01:22:49;2.60;99.90
38090;DHT22;23904;52.322;10.232;2023-12-07T01:25:15;2.60;99.90
38090;DHT22;23904;52.322;10.232;2023-12-07T01:27:45;2.60;99.90
38090;DHT22;23904;52.322;10.232;2023-12-07T01:30:11;2.60;99.90
38090;DHT22;23904;52.322;10.232;2023-12-07T01:32:36;2.60;99.90
38090;DHT22;23904;52.322;10.232;2023-12-07T01:35:02;2.60;99.90
38090;DHT22;23904;52.322;10.232;2023-12-07T01:37:28;2.60;99.90
38090;DHT22;23904;52.322;10.232;2023-12-07T01:39:54;2.60;99.90
38090;DHT22;23904;52.322;10.232;2023-12-07T01:42:20;2.60;99.90
38090;DHT22;23904;52.322;10.232;2023-12-07T01:44:46;2.60;99.90
38090;DHT22;23904;52.322;10.232;2023-12-07T01:47:11;2.60;99.90
38090;DHT22;23904;52.322;10.232;2023-12-07T01:49:37;2.60;99.90
38090;DHT22;23904;52.322;10.232;2023-12-07T01:52:03;2.60;99.90
38090;DHT22;23904;52.322;10.232;2023-12-07T01:54:31;2.70;99.90
38090;DHT22;23904;52.322;10.232;2023-12-07T01:56:56;2.70;99.90
38090;DHT22;23904;52.322;10.232;2023-12-07T01:59:23;2.70;99.90
38090;DHT22;23904;52.322;10.232;2023-12-07T02:01:49;2.70;99.90
38090;DHT22;23904;52.322;10.232;2023-12-07T02:04:16;2.70;99.90
38090;DHT22;23904;52.322;10.232;2023-12-07T02:06:42;2.70;99.90
38090;DHT22;23904;52.322;10.232;2023-12-07T02:09:07;2.70;99.90
38090;DHT22;23904;52.322;10.232;2023-12-07T02:11:34;2.70;99.90
38090;DHT22;23904;52.322;10.232;2023-12-07T02:14:00;2.70;99.90
38090;DHT22;23904;52.322;10.232;2023-12-07T02:16:55;2.70;99.90
38090;DHT22;23904;52.322;10.232;2023-12-07T02:20:29;2.70;99.90
38090;DHT22;23904;52.322;10.232;2023-12-07T02:23:01;2.70;99.90
38090;DHT22;23904;52.322;10.232;2023-12-07T02:25:35;2.70;99.90
38090;DHT22;23904;52.322;10.232;2023-12-07T02:28:03;2.70;99.90
38090;DHT22;23904;52.322;10.232;2023-12-07T02:30:28;2.70;99.90
38090;DHT22;23904;52.322;10.232;2023-12-07T02:32:54;2.70;99.90
38090;DHT22;23904;52.322;10.232;2023-12-07T02:35:20;2.70;99.90
38090;DHT22;23904;52.322;10.232;2023-12-07T02:37:48;2.80;99.90
38090;DHT22;23904;52.322;10.232;2023-12-07T02:40:19;2.70;99.90
38090;DHT22;23904;52.322;10.232;2023-12-07T02:42:51;2.80;99.90
38090;DHT22;23904;52.322;10.232;2023-12-07T02:45:18;2.80;99.90
38090;DHT22;23904;52.322;10.232;2023-12-07T02:47:43;2.70;99.90
38090;DHT22;23904;52.322;10.232;2023-12-07T02:50:10;2.70;99.90
38090;DHT22;23904;52.322;10.232;2023-12-07T02:52:37;2.70;99.90
38090;DHT22;23904;52.322;10.232;2023-12-07T02:55:02;2.70;99.90
38090;DHT22;23904;52.322;10.232;2023-12-07T02:57:29;2.70;99.90
38090;DHT22;23904;52.322;10.232;2023-12-07T02:59:55;2.70;99.90
38090;DHT22;23904;52.322;10.232;2023-12-07T03:02:21;2.70;99.90
38090;DHT22;23904;52.322;10.232;2023-12-07T03:04:47;2.70;99.90
38090;DHT22;23904;52.322;10.232;2023-12-07T03:07:12;2.70;99.90
38090;DHT22;23904;52.322;10.232;2023-12-07T03:09:38;2.70;99.90
38090;DHT22;23904;52.322;10.232;2023-12-07T03:12:04;2.70;99.90
38090;DHT22;23904;52.322;10.232;2023-12-07T03:14:30;2.70;99.90
38090;DHT22;23904;52.322;10.232;2023-12-07T03:16:55;2.70;99.90
38090;DHT22;23904;52.322;10.232;2023-12-07T03:19:21;2.70;99.90
38090;DHT22;23904;52.322;10.232;2023-12-07T03:21:46;2.70;99.90
38090;DHT22;23904;52.322;10.232;2023-12-07T03:24:12;2.70;99.90
38090;DHT22;23904;52.322;10.232;2023-12-07T03:26:38;2.70;99.90
38090;DHT22;23904;52.322;10.232;2023-12-07T03:29:03;2.70;99.90
38090;DHT22;23904;52.322;10.232;2023-12-07T03:31:29;2.70;99.90
38090;DHT22;23904;52.322;10.232;2023-12-07T03:33:55;2.70;99.90
38090;DHT22;23904;52.322;10.232;2023-12-07T03:36:21;2.70;99.90
38090;DHT22;23904;52.322;10.232;2023-12-07T03:38:47;2.70;99.90
38090;DHT22;23904;52.322;10.232;2023-12-07T03:41:13;2.70;99.90
38090;DHT22;23904;52.322;10.232;2023-12-07T03:43:39;2.80;99.90
38090;DHT22;23904;52.322;10.232;2023-12-07T03:46:06;2.80;99.90
38090;DHT22;23904;52.322;10.232;2023-12-07T03:48:32;2.80;99.90
38090;DHT22;23904;52.322;10.232;2023-12-07T03:50:58;2.70;99.90
38090;DHT22;23904;52.322;10.232;2023-12-07T03:53:24;2.70;99.90
38090;DHT22;23904;52.322;10.232;2023-12-07T03:55:50;2.70;99.90
38090;DHT22;23904;52.322;10.232;2023-12-07T03:58:16;2.70;99.90
38090;DHT22;23904;52.322;10.232;2023-12-07T04:00:42;2.70;99.90
38090;DHT22;23904;52.322;10.232;2023-12-07T04:03:07;2.70;99.90
38090;DHT22;23904;52.322;10.232;2023-12-07T04:05:33;2.70;99.90
38090;DHT22;23904;52.322;10.232;2023-12-07T04:07:59;2.70;99.90
38090;DHT22;23904;52.322;10.232;2023-12-07T04:10:25;2.70;99.90
38090;DHT22;23904;52.322;10.232;2023-12-07T04:12:50;2.70;99.90
38090;DHT22;23904;52.322;10.232;2023-12-07T04:15:18;2.70;99.90
38090;DHT22;23904;52.322;10.232;2023-12-07T04:17:45;2.70;99.90
38090;DHT22;23904;52.322;10.232;2023-12-07T04:20:11;2.70;99.90
38090;DHT22;23904;52.322;10.232;2023-12-07T04:22:38;2.70;99.90
38090;DHT22;23904;52.322;10.232;2023-12-07T04:25:05;2.70;99.90
38090;DHT22;23904;52.322;10.232;2023-12-07T04:27:31;2.70;99.90
38090;DHT22;23904;52.322;10.232;2023-12-07T04:29:58;2.70;99.90
38090;DHT22;23904;52.322;10.232;2023-12-07T04:32:23;2.70;99.90
38090;DHT22;23904;52.322;10.232;2023-12-07T04:34:49;2.70;99.90
38090;DHT22;23904;52.322;10.232;2023-12-07T04:37:14;2.70;99.90
38090;DHT22;23904;52.322;10.232;2023-12-07T04:39:40;2.70;99.90
38090;DHT22;23904;52.322;10.232;2023-12-07T04:42:06;2.70;99.90
38090;DHT22;23904;52.322;10.232;2023-12-07T04:44:31;2.80;99.90
38090;DHT22;23904;52.322;10.232;2023-12-07T04:46:57;2.70;99.90
38090;DHT22;23904;52.322;10.232;2023-12-07T04:49:22;2.70;99.90
38090;DHT22;23904;52.322;10.232;2023-12-07T04:51:48;2.70;99.90
38090;DHT22;23904;52.322;10.232;2023-12-07T04:54:13;2.70;99.90
38090;DHT22;23904;52.322;10.232;2023-12-07T04:56:42;2.70;99.90
38090;DHT22;23904;52.322;10.232;2023-12-07T04:59:08;2.70;99.90
38090;DHT22;23904;52.322;10.232;2023-12-07T05:01:36;2.80;99.90
38090;DHT22;23904;52.322;10.232;2023-12-07T05:04:02;2.80;99.90
38090;DHT22;23904;52.322;10.232;2023-12-07T05:06:30;2.80;99.90
38090;DHT22;23904;52.322;10.232;2023-12-07T05:08:56;2.70;99.90
38090;DHT22;23904;52.322;10.232;2023-12-07T05:11:22;2.70;99.90
38090;DHT22;23904;52.322;10.232;2023-12-07T05:13:47;2.80;99.90
38090;DHT22;23904;52.322;10.232;2023-12-07T05:16:13;2.80;99.90
38090;DHT22;23904;52.322;10.232;2023-12-07T05:18:39;2.80;99.90
38090;DHT22;23904;52.322;10.232;2023-12-07T05:21:05;2.80;99.90
38090;DHT22;23904;52.322;10.232;2023-12-07T05:23:31;2.80;99.90
38090;DHT22;23904;52.322;10.232;2023-12-07T05:25:56;2.80;99.90
38090;DHT22;23904;52.322;10.232;2023-12-07T05:28:22;2.90;99.90
38090;DHT22;23904;52.322;10.232;2023-12-07T05:30:48;2.90;99.90
38090;DHT22;23904;52.322;10.232;2023-12-07T05:33:13;2.90;99.90
38090;DHT22;23904;52.322;10.232;2023-12-07T05:35:40;2.90;99.90
38090;DHT22;23904;52.322;10.232;2023-12-07T05:38:05;2.90;99.90
38090;DHT22;23904;52.322;10.232;2023-12-07T05:40:31;2.90;99.90
38090;DHT22;23904;52.322;10.232;2023-12-07T05:42:56;2.80;99.90
38090;DHT22;23904;52.322;10.232;2023-12-07T05:45:22;2.80;99.90
38090;DHT22;23904;52.322;10.232;2023-12-07T05:47:48;2.80;99.90
38090;DHT22;23904;52.322;10.232;2023-12-07T05:50:13;2.80;99.90
38090;DHT22;23904;52.322;10.232;2023-12-07T05:52:39;2.80;99.90
38090;DHT22;23904;52.322;10.232;2023-12-07T05:55:05;2.80;99.90
38090;DHT22;23904;52.322;10.232;2023-12-07T05:57:31;2.80;99.90
38090;DHT22;23904;52.322;10.232;2023-12-07T05:59:56;2.80;99.90
38090;DHT22;23904;52.322;10.232;2023-12-07T06:02:22;2.80;99.90
38090;DHT22;23904;52.322;10.232;2023-12-07T06:04:48;2.80;99.90
38090;DHT22;23904;52.322;10.232;2023-12-07T06:07:13;2.80;99.90
38090;DHT22;23904;52.322;10.232;2023-12-07T06:09:39;2.80;99.90
38090;DHT22;23904;52.322;10.232;2023-12-07T06:12:06;2.70;99.90
38090;DHT22;23904;52.322;10.232;2023-12-07T06:14:32;2.70;99.90
38090;DHT22;23904;52.322;10.232;2023-12-07T06:16:57;2.70;99.90
38090;DHT22;23904;52.322;10.232;2023-12-07T06:19:24;2.70;99.90
38090;DHT22;23904;52.322;10.232;2023-12-07T06:21:50;2.70;99.90
38090;DHT22;23904;52.322;10.232;2023-12-07T06:24:16;2.70;99.90
38090;DHT22;23904;52.322;10.232;2023-12-07T06:26:41;2.60;99.90
38090;DHT22;23904;52.322;10.232;2023-12-07T06:29:07;2.70;99.90
38090;DHT22;23904;52.322;10.232;2023-12-07T06:31:33;2.70;99.90
38090;DHT22;23904;52.322;10.232;2023-12-07T06:33:59;2.70;99.90
38090;DHT22;23904;52.322;10.232;2023-12-07T06:36:26;2.70;99.90
38090;DHT22;23904;52.322;10.232;2023-12-07T06:38:52;2.70;99.90
38090;DHT22;23904;52.322;10.232;2023-12-07T06:41:20;2.70;99.90
38090;DHT22;23904;52.322;10.232;2023-12-07T06:43:46;2.70;99.90
38090;DHT22;23904;52.322;10.232;2023-12-07T06:46:14;2.80;99.90
38090;DHT22;23904;52.322;10.232;2023-12-07T06:48:41;2.80;99.90
38090;DHT22;23904;52.322;10.232;2023-12-07T06:51:07;2.70;99.90
38090;DHT22;23904;52.322;10.232;2023-12-07T06:53:33;2.70;99.90
38090;DHT22;23904;52.322;10.232;2023-12-07T06:55:58;2.70;99.90
38090;DHT22;23904;52.322;10.232;2023-12-07T06:58:24;2.70;99.90
38090;DHT22;23904;52.322;10.232;2023-12-07T07:00:49;2.70;99.90
38090;DHT22;23904;52.322;10.232;2023-12-07T07:03:16;2.70;99.90
38090;DHT22;23904;52.322;10.232;2023-12-07T07:05:42;2.70;99.90
38090;DHT22;23904;52.322;10.232;2023-12-07T07:08:08;2.70;99.90
38090;DHT22;23904;52.322;10.232;2023-12-07T07:10:34;2.80;99.90
38090;DHT22;23904;52.322;10.232;2023-12-07T07:13:01;2.70;99.90
38090;DHT22;23904;52.322;10.232;2023-12-07T07:15:32;2.70;99.90
38090;DHT22;23904;52.322;10.232;2023-12-07T07:17:58;2.70;99.90
38090;DHT22;23904;52.322;10.232;2023-12-07T07:20:25;2.70;99.90
38090;DHT22;23904;52.322;10.232;2023-12-07T07:22:51;2.80;99.90
38090;DHT22;23904;52.322;10.232;2023-12-07T07:25:16;2.80;99.90
38090;DHT22;23904;52.322;10.232;2023-12-07T07:27:45;2.80;99.90
38090;DHT22;23904;52.322;10.232;2023-12-07T07:30:11;2.80;99.90
38090;DHT22;23904;52.322;10.232;2023-12-07T07:32:38;2.80;99.90
38090;DHT22;23904;52.322;10.232;2023-12-07T07:35:03;2.80;99.90
38090;DHT22;23904;52.322;10.232;2023-12-07T07:37:29;2.80;99.90
38090;DHT22;23904;52.322;10.232;2023-12-07T07:39:55;2.80;99.90
38090;DHT22;23904;52.322;10.232;2023-12-07T07:42:20;2.80;99.90
38090;DHT22;23904;52.322;10.232;2023-12-07T07:44:46;2.80;99.90
38090;DHT22;23904;52.322;10.232;2023-12-07T07:47:11;2.80;99.90
38090;DHT22;23904;52.322;10.232;2023-12-07T07:49:37;2.80;99.90
38090;DHT22;23904;52.322;10.232;2023-12-07T07:52:02;2.90;99.90
38090;DHT22;23904;52.322;10.232;2023-12-07T07:54:30;2.90;99.90
38090;DHT22;23904;52.322;10.232;2023-12-07T07:56:56;2.90;99.90
38090;DHT22;23904;52.322;10.232;2023-12-07T07:59:21;2.90;99.90
38090;DHT22;23904;52.322;10.232;2023-12-07T08:01:47;2.90;99.90
38090;DHT22;23904;52.322;10.232;2023-12-07T08:04:13;3.00;99.90
38090;DHT22;23904;52.322;10.232;2023-12-07T08:06:38;2.90;99.90
38090;DHT22;23904;52.322;10.232;2023-12-07T08:09:04;2.90;99.90
38090;DHT22;23904;52.322;10.232;2023-12-07T08:11:29;3.00;99.90
38090;DHT22;23904;52.322;10.232;2023-12-07T08:13:55;3.00;99.90
38090;DHT22;23904;52.322;10.232;2023-12-07T08:16:21;3.00;99.90
38090;DHT22;23904;52.322;10.232;2023-12-07T08:18:47;3.00;99.90
38090;DHT22;23904;52.322;10.232;2023-12-07T08:21:22;3.00;99.90
38090;DHT22;23904;52.322;10.232;2023-12-07T08:23:49;3.00;99.90
38090;DHT22;23904;52.322;10.232;2023-12-07T08:26:15;3.00;99.90
38090;DHT22;23904;52.322;10.232;2023-12-07T08:28:41;3.00;99.90
38090;DHT22;23904;52.322;10.232;2023-12-07T08:31:07;3.00;99.90
38090;DHT22;23904;52.322;10.232;2023-12-07T08:33:32;3.10;99.90
38090;DHT22;23904;52.322;10.232;2023-12-07T08:36:02;3.10;99.90
38090;DHT22;23904;52.322;10.232;2023-12-07T08:38:27;3.00;99.90
38090;DHT22;23904;52.322;10.232;2023-12-07T08:40:53;3.10;99.90
38090;DHT22;23904;52.322;10.232;2023-12-07T08:43:22;3.10;99.90
38090;DHT22;23904;52.322;10.232;2023-12-07T08:45:51;3.10;99.90
38090;DHT22;23904;52.322;10.232;2023-12-07T08:48:17;3.10;99.90
38090;DHT22;23904;52.322;10.232;2023-12-07T08:50:44;3.10;99.90
38090;DHT22;23904;52.322;10.232;2023-12-07T08:53:10;3.10;99.90
38090;DHT22;23904;52.322;10.232;2023-12-07T08:55:35;3.20;99.90
38090;DHT22;23904;52.322;10.232;2023-12-07T08:58:01;3.20;99.90
38090;DHT22;23904;52.322;10.232;2023-12-07T09:00:30;3.20;99.90
38090;DHT22;23904;52.322;10.232;2023-12-07T09:02:57;3.20;99.90
38090;DHT22;23904;52.322;10.232;2023-12-07T09:05:22;3.20;99.90
38090;DHT22;23904;52.322;10.232;2023-12-07T09:07:48;3.30;99.90
38090;DHT22;23904;52.322;10.232;2023-12-07T09:10:13;3.20;99.90
38090;DHT22;23904;52.322;10.232;2023-12-07T09:12:39;3.20;99.90
38090;DHT22;23904;52.322;10.232;2023-12-07T09:15:05;3.20;99.90
38090;DHT22;23904;52.322;10.232;2023-12-07T09:17:35;3.20;99.90
38090;DHT22;23904;52.322;10.232;2023-12-07T09:20:04;3.30;99.90
38090;DHT22;23904;52.322;10.232;2023-12-07T09:22:32;3.40;99.90
38090;DHT22;23904;52.322;10.232;2023-12-07T09:24:57;3.40;99.90
38090;DHT22;23904;52.322;10.232;2023-12-07T09:27:23;3.40;99.90
38090;DHT22;23904;52.322;10.232;2023-12-07T09:29:49;3.40;99.90
38090;DHT22;23904;52.322;10.232;2023-12-07T09:32:16;3.50;99.90
38090;DHT22;23904;52.322;10.232;2023-12-07T09:34:42;3.50;99.90
38090;DHT22;23904;52.322;10.232;2023-12-07T09:37:08;3.50;99.90
38090;DHT22;23904;52.322;10.232;2023-12-07T09:39:34;3.50;99.90
38090;DHT22;23904;52.322;10.232;2023-12-07T09:42:00;3.50;99.90
38090;DHT22;23904;52.322;10.232;2023-12-07T09:44:27;3.50;99.90
38090;DHT22;23904;52.322;10.232;2023-12-07T09:46:53;3.60;99.90
38090;DHT22;23904;52.322;10.232;2023-12-07T09:49:20;3.60;99.90
38090;DHT22;23904;52.322;10.232;2023-12-07T09:51:46;3.60;99.90
38090;DHT22;23904;52.322;10.232;2023-12-07T09:54:13;3.60;99.90
38090;DHT22;23904;52.322;10.232;2023-12-07T09:56:39;3.60;99.90
38090;DHT22;23904;52.322;10.232;2023-12-07T09:59:05;3.70;99.90
38090;DHT22;23904;52.322;10.232;2023-12-07T10:01:32;3.70;99.90
38090;DHT22;23904;52.322;10.232;2023-12-07T10:04:19;3.70;99.90
38090;DHT22;23904;52.322;10.232;2023-12-07T10:06:48;3.80;99.90
38090;DHT22;23904;52.322;10.232;2023-12-07T10:09:15;3.80;99.90
38090;DHT22;23904;52.322;10.232;2023-12-07T10:11:41;3.90;99.90
38090;DHT22;23904;52.322;10.232;2023-12-07T10:14:07;3.90;99.90
38090;DHT22;23904;52.322;10.232;2023-12-07T10:16:33;3.90;99.90
38090;DHT22;23904;52.322;10.232;2023-12-07T10:19:15;3.90;99.90
38090;DHT22;23904;52.322;10.232;2023-12-07T10:21:44;3.90;99.90
38090;DHT22;23904;52.322;10.232;2023-12-07T10:24:10;3.90;99.90
38090;DHT22;23904;52.322;10.232;2023-12-07T10:26:37;4.00;99.90
38090;DHT22;23904;52.322;10.232;2023-12-07T10:29:04;4.00;99.90
38090;DHT22;23904;52.322;10.232;2023-12-07T10:31:31;4.00;99.90
38090;DHT22;23904;52.322;10.232;2023-12-07T10:33:58;4.10;99.90
38090;DHT22;23904;52.322;10.232;2023-12-07T10:36:25;4.10;99.90
38090;DHT22;23904;52.322;10.232;2023-12-07T10:38:51;4.10;99.90
38090;DHT22;23904;52.322;10.232;2023-12-07T10:41:24;4.10;99.90
38090;DHT22;23904;52.322;10.232;2023-12-07T10:43:54;4.10;99.90
38090;DHT22;23904;52.322;10.232;2023-12-07T10:46:25;4.10;99.90
38090;DHT22;23904;52.322;10.232;2023-12-07T10:48:59;4.20;99.90
38090;DHT22;23904;52.322;10.232;2023-12-07T10:51:31;4.10;99.90
38090;DHT22;23904;52.322;10.232;2023-12-07T10:54:04;4.10;99.90
38090;DHT22;23904;52.322;10.232;2023-12-07T10:56:45;4.10;99.90
38090;DHT22;23904;52.322;10.232;2023-12-07T10:59:12;4.10;99.90
38090;DHT22;23904;52.322;10.232;2023-12-07T11:01:40;4.00;99.90
38090;DHT22;23904;52.322;10.232;2023-12-07T11:04:06;4.00;99.90
38090;DHT22;23904;52.322;10.232;2023-12-07T11:06:33;4.10;99.90
38090;DHT22;23904;52.322;10.232;2023-12-07T11:09:03;4.00;99.90
38090;DHT22;23904;52.322;10.232;2023-12-07T11:11:36;4.10;99.90
38090;DHT22;23904;52.322;10.232;2023-12-07T11:14:05;4.10;99.90
38090;DHT22;23904;52.322;10.232;2023-12-07T11:16:37;4.10;99.90
38090;DHT22;23904;52.322;10.232;2023-12-07T11:21:56;4.10;99.90
38090;DHT22;23904;52.322;10.232;2023-12-07T11:24:23;4.20;99.90
38090;DHT22;23904;52.322;10.232;2023-12-07T11:26:51;4.20;99.90
38090;DHT22;23904;52.322;10.232;2023-12-07T11:29:20;4.20;99.90
38090;DHT22;23904;52.322;10.232;2023-12-07T11:31:47;4.20;99.90
38090;DHT22;23904;52.322;10.232;2023-12-07T11:34:13;4.20;99.90
38090;DHT22;23904;52.322;10.232;2023-12-07T11:36:39;4.10;99.90
38090;DHT22;23904;52.322;10.232;2023-12-07T11:41:35;4.10;99.90
38090;DHT22;23904;52.322;10.232;2023-12-07T11:44:10;4.20;99.90
38090;DHT22;23904;52.322;10.232;2023-12-07T11:46:37;4.20;99.90
38090;DHT22;23904;52.322;10.232;2023-12-07T11:49:03;4.20;99.90
38090;DHT22;23904;52.322;10.232;2023-12-07T11:51:29;4.30;99.90
38090;DHT22;23904;52.322;10.232;2023-12-07T11:53:55;4.30;99.90
38090;DHT22;23904;52.322;10.232;2023-12-07T11:56:20;4.20;99.90
38090;DHT22;23904;52.322;10.232;2023-12-07T11:58:47;4.30;99.90
38090;DHT22;23904;52.322;10.232;2023-12-07T12:01:13;4.30;99.90
38090;DHT22;23904;52.322;10.232;2023-12-07T12:03:39;4.40;99.90
38090;DHT22;23904;52.322;10.232;2023-12-07T12:06:06;4.40;99.90
38090;DHT22;23904;52.322;10.232;2023-12-07T12:08:33;4.50;99.90
38090;DHT22;23904;52.322;10.232;2023-12-07T12:10:59;4.50;99.90
38090;DHT22;23904;52.322;10.232;2023-12-07T12:13:27;4.40;99.90
38090;DHT22;23904;52.322;10.232;2023-12-07T12:15:58;4.40;99.90
38090;DHT22;23904;52.322;10.232;2023-12-07T12:18:24;4.30;99.90
38090;DHT22;23904;52.322;10.232;2023-12-07T12:20:54;4.30;99.90
38090;DHT22;23904;52.322;10.232;2023-12-07T12:23:20;4.30;99.90
38090;DHT22;23904;52.322;10.232;2023-12-07T12:25:46;4.20;99.90
38090;DHT22;23904;52.322;10.232;2023-12-07T12:28:16;4.30;99.90
38090;DHT22;23904;52.322;10.232;2023-12-07T12:30:44;4.30;99.90
38090;DHT22;23904;52.322;10.232;2023-12-07T12:33:09;4.30;99.90
38090;DHT22;23904;52.322;10.232;2023-12-07T12:35:35;4.30;99.90
38090;DHT22;23904;52.322;10.232;2023-12-07T12:38:01;4.30;99.90
38090;DHT22;23904;52.322;10.232;2023-12-07T12:40:28;4.40;99.90
38090;DHT22;23904;52.322;10.232;2023-12-07T12:42:57;4.40;99.90
38090;DHT22;23904;52.322;10.232;2023-12-07T12:45:22;4.40;99.90
38090;DHT22;23904;52.322;10.232;2023-12-07T12:47:48;4.40;99.90
38090;DHT22;23904;52.322;10.232;2023-12-07T12:50:37;4.40;99.90
38090;DHT22;23904;52.322;10.232;2023-12-07T12:53:10;4.50;99.90
38090;DHT22;23904;52.322;10.232;2023-12-07T12:55:41;4.40;99.90
38090;DHT22;23904;52.322;10.232;2023-12-07T12:58:08;4.50;99.90
38090;DHT22;23904;52.322;10.232;2023-12-07T13:00:38;4.50;99.90
38090;DHT22;23904;52.322;10.232;2023-12-07T13:03:05;4.50;99.90
38090;DHT22;23904;52.322;10.232;2023-12-07T13:05:32;4.50;99.90
38090;DHT22;23904;52.322;10.232;2023-12-07T13:07:59;4.50;99.90
38090;DHT22;23904;52.322;10.232;2023-12-07T13:10:26;4.50;99.90
38090;DHT22;23904;52.322;10.232;2023-12-07T13:12:51;4.50;99.90
38090;DHT22;23904;52.322;10.232;2023-12-07T13:15:17;4.50;99.90
38090;DHT22;23904;52.322;10.232;2023-12-07T13:17:43;4.50;99.90
38090;DHT22;23904;52.322;10.232;2023-12-07T13:20:09;4.40;99.90
38090;DHT22;23904;52.322;10.232;2023-12-07T13:22:39;4.40;99.90
38090;DHT22;23904;52.322;10.232;2023-12-07T13:25:10;4.40;99.90
38090;DHT22;23904;52.322;10.232;2023-12-07T13:27:37;4.40;99.90
38090;DHT22;23904;52.322;10.232;2023-12-07T13:30:03;4.40;99.90
38090;DHT22;23904;52.322;10.232;2023-12-07T13:32:33;4.40;99.90
38090;DHT22;23904;52.322;10.232;2023-12-07T13:35:00;4.40;99.90
38090;DHT22;23904;52.322;10.232;2023-12-07T13:37:28;4.40;99.90
38090;DHT22;23904;52.322;10.232;2023-12-07T13:39:53;4.40;99.90
38090;DHT22;23904;52.322;10.232;2023-12-07T13:42:24;4.40;99.90
38090;DHT22;23904;52.322;10.232;2023-12-07T13:44:53;4.40;99.90
38090;DHT22;23904;52.322;10.232;2023-12-07T13:47:19;4.40;99.90
38090;DHT22;23904;52.322;10.232;2023-12-07T13:49:48;4.40;99.90
38090;DHT22;23904;52.322;10.232;2023-12-07T13:52:14;4.30;99.90
38090;DHT22;23904;52.322;10.232;2023-12-07T13:54:41;4.40;99.90
38090;DHT22;23904;52.322;10.232;2023-12-07T13:57:07;4.40;99.90
38090;DHT22;23904;52.322;10.232;2023-12-07T13:59:32;4.30;99.90
38090;DHT22;23904;52.322;10.232;2023-12-07T14:01:58;4.30;99.90
38090;DHT22;23904;52.322;10.232;2023-12-07T14:04:24;4.30;99.90
38090;DHT22;23904;52.322;10.232;2023-12-07T14:06:49;4.30;99.90
38090;DHT22;23904;52.322;10.232;2023-12-07T14:09:16;4.30;99.90
38090;DHT22;23904;52.322;10.232;2023-12-07T14:11:43;4.30;99.90
38090;DHT22;23904;52.322;10.232;2023-12-07T14:14:09;4.30;99.90
38090;DHT22;23904;52.322;10.232;2023-12-07T14:16:34;4.30;99.90
38090;DHT22;23904;52.322;10.232;2023-12-07T14:19:00;4.30;99.90
38090;DHT22;23904;52.322;10.232;2023-12-07T14:21:25;4.30;99.90
38090;DHT22;23904;52.322;10.232;2023-12-07T14:23:51;4.30;99.90
38090;DHT22;23904;52.322;10.232;2023-12-07T14:26:19;4.30;99.90
38090;DHT22;23904;52.322;10.232;2023-12-07T14:28:44;4.30;99.90
38090;DHT22;23904;52.322;10.232;2023-12-07T14:31:10;4.20;99.90
38090;DHT22;23904;52.322;10.232;2023-12-07T14:33:42;4.20;99.90
38090;DHT22;23904;52.322;10.232;2023-12-07T14:36:10;4.20;99.90
38090;DHT22;23904;52.322;10.232;2023-12-07T14:38:37;4.20;99.90
38090;DHT22;23904;52.322;10.232;2023-12-07T14:41:03;4.20;99.90
38090;DHT22;23904;52.322;10.232;2023-12-07T14:43:29;4.20;99.90
38090;DHT22;23904;52.322;10.232;2023-12-07T14:45:55;4.20;99.90
38090;DHT22;23904;52.322;10.232;2023-12-07T14:48:20;4.10;99.90
38090;DHT22;23904;52.322;10.232;2023-12-07T14:50:46;4.10;99.90
38090;DHT22;23904;52.322;10.232;2023-12-07T14:53:12;4.10;99.90
38090;DHT22;23904;52.322;10.232;2023-12-07T14:55:37;4.10;99.90
38090;DHT22;23904;52.322;10.232;2023-12-07T14:58:03;4.10;99.90
38090;DHT22;23904;52.322;10.232;2023-12-07T15:00:28;4.10;99.90
38090;DHT22;23904;52.322;10.232;2023-12-07T15:02:54;4.10;99.90
38090;DHT22;23904;52.322;10.232;2023-12-07T15:05:19;4.00;99.90
38090;DHT22;23904;52.322;10.232;2023-12-07T15:07:45;4.00;99.90
38090;DHT22;23904;52.322;10.232;2023-12-07T15:10:10;4.00;99.90
38090;DHT22;23904;52.322;10.232;2023-12-07T15:12:36;4.00;99.90
38090;DHT22;23904;52.322;10.232;2023-12-07T15:15:02;4.00;99.90
38090;DHT22;23904;52.322;10.232;2023-12-07T15:17:31;4.00;99.90
38090;DHT22;23904;52.322;10.232;2023-12-07T15:19:57;4.00;99.90
38090;DHT22;23904;52.322;10.232;2023-12-07T15:22:22;4.00;99.90
38090;DHT22;23904;52.322;10.232;2023-12-07T15:24:48;4.00;99.90
38090;DHT22;23904;52.322;10.232;2023-12-07T15:27:13;4.00;99.90
38090;DHT22;23904;52.322;10.232;2023-12-07T15:29:39;3.90;99.90
38090;DHT22;23904;52.322;10.232;2023-12-07T15:32:05;3.90;99.90